createdAt,value
2019-05-23T00:00:26.732Z,52.50
2019-05-23T00:02:53.940Z,52.60
2019-05-23T00:05:25.024Z,52.60
2019-05-23T00:07:51.320Z,52.60
2019-05-23T00:10:22.723Z,52.40
2019-05-23T00:13:03.028Z,52.40
2019-05-23T00:15:34.508Z,52.50
2019-05-23T00:18:01.327Z,52.40
2019-05-23T00:20:29.239Z,52.50
2019-05-23T00:22:57.199Z,52.50
2019-05-23T00:25:24.012Z,52.50
2019-05-23T00:27:52.355Z,52.50
2019-05-23T00:30:24.705Z,52.50
2019-05-23T00:32:53.201Z,52.60
2019-05-23T00:35:20.470Z,52.50
2019-05-23T00:37:46.831Z,52.50
2019-05-23T00:40:15.575Z,52.50
2019-05-23T00:42:42.979Z,52.40
2019-05-23T00:45:11.782Z,52.60
2019-05-23T00:47:39.550Z,52.40
2019-05-23T00:50:08.039Z,52.40
2019-05-23T00:52:35.351Z,52.50
2019-05-23T00:55:02.358Z,52.50
2019-05-23T00:57:28.661Z,52.70
2019-05-23T00:59:56.172Z,52.60
2019-05-23T01:02:24.196Z,52.70
2019-05-23T01:04:51.020Z,52.80
2019-05-23T01:07:18.831Z,52.80
2019-05-23T01:09:45.848Z,52.90
2019-05-23T01:12:14.066Z,53.10
2019-05-23T01:14:40.865Z,53.00
2019-05-23T01:17:08.680Z,53.20
2019-05-23T01:19:35.075Z,53.10
2019-05-23T01:22:03.336Z,53.30
2019-05-23T01:24:37.744Z,53.20
2019-05-23T01:27:05.551Z,53.30
2019-05-23T01:29:37.841Z,53.40
2019-05-23T01:32:06.952Z,53.60
2019-05-23T01:34:33.749Z,53.50
2019-05-23T01:37:00.171Z,53.70
2019-05-23T01:39:26.772Z,53.70
2019-05-23T01:41:53.901Z,53.80
2019-05-23T01:44:21.392Z,53.70
2019-05-23T01:46:48.588Z,53.80
2019-05-23T01:49:15.593Z,53.70
2019-05-23T01:51:42.515Z,53.80
2019-05-23T01:54:08.928Z,53.80
2019-05-23T01:56:35.669Z,54.00
2019-05-23T01:59:02.327Z,53.90
2019-05-23T02:01:28.638Z,54.00
2019-05-23T02:03:55.454Z,54.00
2019-05-23T02:06:21.987Z,54.20
2019-05-23T02:08:48.504Z,54.10
2019-05-23T02:11:15.004Z,54.10
2019-05-23T02:13:41.423Z,54.10
2019-05-23T02:16:07.727Z,54.10
2019-05-23T02:18:34.927Z,54.10
2019-05-23T02:21:01.854Z,54.10
2019-05-23T02:23:28.165Z,54.00
2019-05-23T02:25:55.179Z,54.20
2019-05-23T02:28:21.613Z,54.30
2019-05-23T02:30:50.116Z,54.20
2019-05-23T02:33:17.236Z,54.30
2019-05-23T02:35:44.076Z,54.20
2019-05-23T02:38:12.400Z,54.10
2019-05-23T02:40:58.909Z,54.00
2019-05-23T02:43:27.121Z,54.00
2019-05-23T02:46:07.291Z,54.00
2019-05-23T02:48:38.501Z,54.00
2019-05-23T02:51:10.250Z,54.30
2019-05-23T02:53:36.841Z,54.30
2019-05-23T02:56:08.300Z,54.30
2019-05-23T02:58:43.306Z,54.20
2019-05-23T03:01:30.200Z,54.00
2019-05-23T03:04:00.413Z,54.00
2019-05-23T03:06:27.915Z,54.00
2019-05-23T03:08:54.230Z,54.00
2019-05-23T03:11:29.248Z,54.10
2019-05-23T03:13:57.498Z,54.10
2019-05-23T03:16:32.824Z,54.00
2019-05-23T03:19:06.379Z,54.20
2019-05-23T03:21:44.596Z,54.50
2019-05-23T03:24:14.483Z,54.60
2019-05-23T03:27:01.292Z,54.50
2019-05-23T03:29:29.968Z,54.50
2019-05-23T03:31:59.615Z,54.30
2019-05-23T03:34:28.943Z,54.40
2019-05-23T03:36:56.593Z,54.50
2019-05-23T03:39:23.500Z,54.50
2019-05-23T03:41:49.803Z,54.40
2019-05-23T03:44:16.808Z,54.40
2019-05-23T03:46:45.117Z,54.60
2019-05-23T03:49:13.317Z,54.10
2019-05-23T03:51:40.739Z,54.90
2019-05-23T03:54:08.256Z,54.90
2019-05-23T03:56:34.700Z,54.90
2019-05-23T03:59:01.147Z,55.20
2019-05-23T04:01:45.995Z,55.30
2019-05-23T04:03:59.382Z,55.50
2019-05-23T04:06:26.514Z,55.30
2019-05-23T04:08:53.632Z,55.50
2019-05-23T04:11:20.478Z,55.20
2019-05-23T04:13:47.021Z,55.50
2019-05-23T04:16:13.833Z,55.60
2019-05-23T04:18:40.594Z,55.50
2019-05-23T04:21:06.995Z,55.80
2019-05-23T04:23:33.324Z,56.70
2019-05-23T04:25:59.650Z,56.10
2019-05-23T04:28:26.609Z,55.80
2019-05-23T04:30:53.154Z,55.70
2019-05-23T04:33:20.583Z,55.40
2019-05-23T04:35:47.505Z,55.30
2019-05-23T04:38:14.890Z,55.20
2019-05-23T04:40:42.444Z,55.10
2019-05-23T04:43:09.037Z,54.80
2019-05-23T04:45:35.972Z,54.90
2019-05-23T04:48:02.776Z,54.70
2019-05-23T04:50:31.149Z,54.50
2019-05-23T04:52:58.039Z,54.60
2019-05-23T04:55:25.160Z,54.50
2019-05-23T04:57:52.432Z,54.90
2019-05-23T05:00:19.284Z,54.30
2019-05-23T05:02:45.999Z,54.10
2019-05-23T05:05:13.260Z,54.10
2019-05-23T05:07:40.059Z,54.00
2019-05-23T05:10:06.679Z,54.10
2019-05-23T05:12:33.703Z,54.10
2019-05-23T05:15:00.152Z,54.00
2019-05-23T05:17:26.771Z,54.00
2019-05-23T05:19:53.143Z,54.00
2019-05-23T05:22:19.625Z,53.90
2019-05-23T05:24:46.026Z,53.80
2019-05-23T05:27:14.037Z,53.80
2019-05-23T05:29:40.353Z,54.00
2019-05-23T05:32:07.177Z,53.90
2019-05-23T05:34:33.484Z,54.00
2019-05-23T05:36:59.797Z,53.80
2019-05-23T05:39:26.534Z,53.80
2019-05-23T05:41:52.954Z,53.70
2019-05-23T05:44:19.368Z,53.60
2019-05-23T05:46:46.091Z,53.60
2019-05-23T05:49:13.312Z,53.50
2019-05-23T05:51:39.758Z,53.70
2019-05-23T05:54:06.900Z,53.50
2019-05-23T05:56:33.283Z,53.50
2019-05-23T05:58:59.733Z,53.50
2019-05-23T06:01:34.034Z,53.40
2019-05-23T06:03:55.779Z,53.40
2019-05-23T06:06:30.300Z,53.50
2019-05-23T06:08:58.694Z,53.40
2019-05-23T06:11:25.056Z,53.50
2019-05-23T06:13:51.937Z,53.40
2019-05-23T06:16:18.734Z,53.50
2019-05-23T06:18:46.359Z,53.50
2019-05-23T06:21:14.591Z,53.50
2019-05-23T06:23:41.638Z,53.50
2019-05-23T06:26:08.182Z,53.50
2019-05-23T06:28:34.794Z,53.30
2019-05-23T06:31:01.490Z,53.30
2019-05-23T06:33:27.820Z,53.30
2019-05-23T06:35:54.635Z,53.20
2019-05-23T06:38:21.679Z,53.40
2019-05-23T06:40:48.900Z,53.30
2019-05-23T06:43:15.195Z,53.10
2019-05-23T06:45:42.227Z,53.30
2019-05-23T06:48:09.836Z,53.10
2019-05-23T06:50:36.506Z,53.10
2019-05-23T06:53:04.357Z,53.10
2019-05-23T06:55:30.861Z,53.20
2019-05-23T06:57:57.500Z,54.10
2019-05-23T07:00:27.803Z,55.10
2019-05-23T07:02:54.263Z,53.80
2019-05-23T07:05:23.599Z,54.50
2019-05-23T07:07:49.909Z,53.30
2019-05-23T07:10:16.568Z,53.50
2019-05-23T07:12:42.983Z,53.30
2019-05-23T07:15:09.385Z,53.30
2019-05-23T07:17:36.245Z,53.90
2019-05-23T07:20:05.656Z,54.40
2019-05-23T07:22:32.002Z,53.90
2019-05-23T07:24:59.035Z,54.00
2019-05-23T07:27:26.732Z,54.40
2019-05-23T07:29:53.052Z,54.50
2019-05-23T07:32:19.361Z,54.20
2019-05-23T07:34:46.203Z,54.40
2019-05-23T07:37:12.530Z,54.20
2019-05-23T07:39:38.865Z,54.40
2019-05-23T07:42:07.625Z,54.60
2019-05-23T07:44:47.573Z,54.40
2019-05-23T07:47:03.414Z,54.70
2019-05-23T07:49:29.822Z,54.60
2019-05-23T07:51:56.128Z,54.30
2019-05-23T07:54:30.363Z,54.50
2019-05-23T07:56:56.971Z,54.20
2019-05-23T07:59:23.296Z,54.30
2019-05-23T08:01:53.682Z,56.20
2019-05-23T08:04:23.330Z,58.50
2019-05-23T08:06:53.168Z,61.10
2019-05-23T08:09:23.352Z,60.50
2019-05-23T08:11:51.929Z,58.70
2019-05-23T08:14:21.103Z,59.50
2019-05-23T08:16:52.802Z,59.30
2019-05-23T08:19:46.933Z,60.10
2019-05-23T08:22:04.313Z,59.70
2019-05-23T08:24:34.834Z,61.70
2019-05-23T08:27:03.864Z,63.80
2019-05-23T08:29:34.765Z,62.80
2019-05-23T08:32:05.055Z,62.80
2019-05-23T08:34:41.331Z,59.10
2019-05-23T08:37:00.899Z,52.70
2019-05-23T08:39:28.317Z,52.50
2019-05-23T08:41:55.127Z,52.40
2019-05-23T08:44:22.706Z,52.20
2019-05-23T08:46:49.272Z,52.70
2019-05-23T08:49:16.518Z,52.80
2019-05-23T08:51:42.941Z,52.20
2019-05-23T08:54:09.493Z,51.60
2019-05-23T08:56:36.803Z,53.20
2019-05-23T08:59:04.007Z,53.30
2019-05-23T09:01:30.411Z,52.40
2019-05-23T09:03:56.709Z,48.90
2019-05-23T09:06:23.812Z,47.50
2019-05-23T09:08:51.959Z,49.50
2019-05-23T09:11:18.881Z,47.20
2019-05-23T09:13:45.453Z,48.60
2019-05-23T09:16:11.956Z,47.90
2019-05-23T09:18:38.356Z,50.70
2019-05-23T09:21:05.575Z,48.80
2019-05-23T09:23:32.024Z,45.60
2019-05-23T09:25:58.890Z,46.40
2019-05-23T09:28:25.339Z,45.20
2019-05-23T09:30:53.404Z,46.60
2019-05-23T09:33:20.336Z,48.40
2019-05-23T09:35:47.136Z,47.60
2019-05-23T09:38:13.588Z,45.20
2019-05-23T09:40:39.948Z,42.70
2019-05-23T09:43:06.770Z,44.60
2019-05-23T09:45:33.172Z,44.10
2019-05-23T09:47:59.586Z,42.50
2019-05-23T09:50:26.396Z,43.70
2019-05-23T09:52:52.709Z,43.90
2019-05-23T09:55:19.443Z,44.00
2019-05-23T09:57:45.958Z,43.10
2019-05-23T10:00:14.191Z,43.20
2019-05-23T10:02:40.783Z,44.10
2019-05-23T10:05:07.383Z,42.80
2019-05-23T10:07:34.131Z,42.00
2019-05-23T10:10:00.535Z,41.30
2019-05-23T10:12:26.936Z,42.00
2019-05-23T10:14:53.648Z,41.90
2019-05-23T10:17:20.521Z,40.70
2019-05-23T10:19:46.924Z,41.70
2019-05-23T10:22:13.527Z,40.70
2019-05-23T10:24:39.848Z,39.60
2019-05-23T10:27:07.164Z,39.90
2019-05-23T10:29:33.704Z,39.50
2019-05-23T10:32:00.246Z,40.80
2019-05-23T10:34:26.758Z,42.60
2019-05-23T10:36:53.208Z,42.60
2019-05-23T10:39:19.626Z,43.30
2019-05-23T10:41:45.952Z,43.70
2019-05-23T10:44:12.500Z,44.20
2019-05-23T10:46:39.214Z,43.70
2019-05-23T10:49:05.711Z,44.70
2019-05-23T10:51:32.335Z,44.90
2019-05-23T10:53:58.792Z,45.50
2019-05-23T10:56:25.687Z,45.60
2019-05-23T10:58:52.048Z,45.80
2019-05-23T11:01:18.988Z,45.80
2019-05-23T11:03:45.402Z,45.60
2019-05-23T11:06:15.957Z,45.50
2019-05-23T11:08:40.910Z,44.00
2019-05-23T11:11:07.729Z,44.60
2019-05-23T11:13:34.439Z,44.20
2019-05-23T11:16:00.946Z,43.30
2019-05-23T11:18:27.388Z,42.10
2019-05-23T11:20:53.686Z,41.00
2019-05-23T11:23:21.924Z,42.30
2019-05-23T11:25:48.646Z,43.70
2019-05-23T11:28:14.962Z,45.90
2019-05-23T11:30:44.411Z,45.80
2019-05-23T11:33:11.823Z,46.20
2019-05-23T11:35:38.962Z,46.70
2019-05-23T11:38:05.410Z,47.00
2019-05-23T11:40:33.848Z,47.30
2019-05-23T11:43:00.321Z,47.70
2019-05-23T11:45:28.531Z,47.70
2019-05-23T11:47:54.864Z,48.00
2019-05-23T11:50:21.472Z,48.10
2019-05-23T11:52:47.883Z,48.30
2019-05-23T11:55:14.402Z,48.40
2019-05-23T11:57:41.575Z,48.60
2019-05-23T12:00:13.183Z,48.70
2019-05-23T12:02:41.336Z,48.70
2019-05-23T12:05:10.091Z,49.00
2019-05-23T12:07:36.503Z,49.00
2019-05-23T12:10:05.011Z,49.00
2019-05-23T12:12:31.452Z,49.10
2019-05-23T12:14:57.857Z,49.20
2019-05-23T12:17:25.990Z,49.20
2019-05-23T12:19:52.284Z,49.40
2019-05-23T12:22:19.392Z,49.30
2019-05-23T12:24:45.826Z,49.30
2019-05-23T12:27:13.088Z,49.20
2019-05-23T12:29:39.332Z,49.20
2019-05-23T12:32:07.576Z,49.20
2019-05-23T12:34:33.871Z,49.10
2019-05-23T12:37:18.166Z,49.30
2019-05-23T12:39:28.508Z,49.30
2019-05-23T12:41:54.818Z,49.60
2019-05-23T12:44:21.223Z,49.60
2019-05-23T12:46:47.526Z,49.60
2019-05-23T12:49:18.731Z,49.60
2019-05-23T12:51:45.447Z,46.50
2019-05-23T12:54:11.823Z,34.30
2019-05-23T12:56:39.484Z,35.10
2019-05-23T12:59:06.321Z,33.80
2019-05-23T13:01:34.052Z,35.00
2019-05-23T13:04:01.166Z,35.00
2019-05-23T13:06:27.711Z,34.80
2019-05-23T13:08:54.152Z,35.60
2019-05-23T13:11:20.561Z,33.40
2019-05-23T13:13:47.063Z,31.30
2019-05-23T13:16:13.464Z,32.50
2019-05-23T13:18:39.792Z,33.50
2019-05-23T13:21:11.378Z,33.10
2019-05-23T13:23:42.183Z,31.60
2019-05-23T13:26:13.344Z,31.70
2019-05-23T13:28:47.774Z,31.90
2019-05-23T13:31:18.616Z,30.90
2019-05-23T13:33:53.907Z,31.30
2019-05-23T13:36:32.025Z,32.00
2019-05-23T13:39:07.303Z,31.30
2019-05-23T13:41:41.979Z,31.30
2019-05-23T13:44:29.280Z,30.80
2019-05-23T13:46:38.717Z,30.80
2019-05-23T13:49:05.101Z,30.40
2019-05-23T13:51:31.531Z,30.90
2019-05-23T13:53:57.972Z,31.20
2019-05-23T13:56:24.796Z,30.70
2019-05-23T13:58:51.668Z,29.90
2019-05-23T14:01:18.460Z,29.70
2019-05-23T14:03:45.001Z,29.90
2019-05-23T14:06:11.911Z,30.00
2019-05-23T14:08:38.332Z,29.70
2019-05-23T14:11:04.644Z,29.50
2019-05-23T14:13:31.480Z,29.80
2019-05-23T14:15:58.290Z,30.20
2019-05-23T14:18:26.375Z,30.90
2019-05-23T14:20:52.800Z,30.80
2019-05-23T14:23:26.897Z,31.10
2019-05-23T14:25:54.918Z,31.60
2019-05-23T14:28:21.801Z,31.80
2019-05-23T14:30:59.055Z,32.40
2019-05-23T14:33:27.568Z,32.40
2019-05-23T14:35:59.062Z,32.90
2019-05-23T14:38:30.634Z,32.30
2019-05-23T14:40:56.714Z,32.10
2019-05-23T14:43:27.499Z,31.20
2019-05-23T14:46:10.720Z,32.00
2019-05-23T14:48:41.821Z,31.90
2019-05-23T14:51:10.211Z,31.80
2019-05-23T14:53:47.623Z,32.80
2019-05-23T14:56:14.708Z,32.50
2019-05-23T14:58:41.019Z,32.10
2019-05-23T15:01:09.226Z,32.00
2019-05-23T15:03:36.135Z,32.60
2019-05-23T15:06:02.789Z,32.70
2019-05-23T15:08:47.549Z,32.90
2019-05-23T15:10:58.149Z,32.10
2019-05-23T15:13:25.141Z,32.10
2019-05-23T15:15:51.528Z,32.10
2019-05-23T15:18:19.086Z,32.20
2019-05-23T15:20:45.480Z,32.10
2019-05-23T15:23:11.820Z,32.60
2019-05-23T15:25:38.182Z,32.50
2019-05-23T15:28:11.485Z,32.10
2019-05-23T15:30:38.012Z,31.30
2019-05-23T15:33:04.593Z,31.60
2019-05-23T15:35:33.167Z,31.80
2019-05-23T15:37:59.949Z,31.60
2019-05-23T15:40:27.101Z,30.90
2019-05-23T15:42:53.420Z,31.50
2019-05-23T15:45:19.865Z,31.30
2019-05-23T15:47:46.669Z,32.00
2019-05-23T15:50:18.394Z,32.00
2019-05-23T15:53:04.406Z,31.90
2019-05-23T15:55:35.058Z,31.70
2019-05-23T15:58:32.572Z,31.60
2019-05-23T16:01:03.770Z,32.00
2019-05-23T16:03:34.793Z,31.80
2019-05-23T16:06:01.623Z,31.90
2019-05-23T16:08:28.803Z,32.30
2019-05-23T16:10:55.533Z,32.30
2019-05-23T16:13:22.445Z,33.60
2019-05-23T16:15:49.041Z,33.20
2019-05-23T16:18:16.168Z,33.50
2019-05-23T16:20:42.582Z,34.00
2019-05-23T16:23:09.204Z,33.50
2019-05-23T16:25:35.816Z,33.60
2019-05-23T16:28:02.607Z,34.40
2019-05-23T16:30:29.502Z,34.70
2019-05-23T16:32:55.906Z,35.00
2019-05-23T16:35:22.547Z,35.30
2019-05-23T16:37:49.162Z,35.10
2019-05-23T16:40:15.663Z,35.30
2019-05-23T16:42:42.283Z,34.30
2019-05-23T16:45:08.680Z,34.00
2019-05-23T16:47:35.135Z,34.30
2019-05-23T16:50:02.862Z,35.20
2019-05-23T16:52:29.556Z,36.10
2019-05-23T16:54:57.318Z,36.30
2019-05-23T16:57:40.552Z,36.50
2019-05-23T17:00:19.561Z,36.80
2019-05-23T17:02:51.476Z,37.10
2019-05-23T17:05:22.760Z,37.40
2019-05-23T17:07:51.161Z,37.50
2019-05-23T17:10:34.910Z,37.60
2019-05-23T17:13:03.897Z,37.80
2019-05-23T17:15:32.274Z,37.80
2019-05-23T17:18:03.246Z,37.80
2019-05-23T17:20:34.186Z,37.80
2019-05-23T17:23:02.840Z,37.80
2019-05-23T17:25:48.180Z,37.70
2019-05-23T17:28:16.796Z,37.90
2019-05-23T17:30:45.264Z,37.90
2019-05-23T17:33:11.972Z,38.00
2019-05-23T17:35:38.600Z,38.20
2019-05-23T17:38:05.313Z,38.30
2019-05-23T17:40:32.475Z,38.70
2019-05-23T17:42:58.922Z,39.80
2019-05-23T17:45:25.526Z,40.40
2019-05-23T17:47:52.656Z,40.80
2019-05-23T17:50:19.180Z,40.70
2019-05-23T17:52:45.491Z,41.10
2019-05-23T17:55:12.066Z,41.30
2019-05-23T17:57:39.732Z,41.30
2019-05-23T18:00:10.056Z,41.40
2019-05-23T18:02:36.767Z,41.40
2019-05-23T18:05:05.780Z,41.20
2019-05-23T18:07:32.689Z,41.40
2019-05-23T18:09:59.207Z,41.60
2019-05-23T18:12:25.642Z,41.80
2019-05-23T18:14:52.169Z,42.70
2019-05-23T18:17:18.801Z,46.60
2019-05-23T18:19:45.307Z,49.50
2019-05-23T18:22:13.535Z,50.70
2019-05-23T18:24:40.436Z,42.70
2019-05-23T18:27:09.241Z,36.80
2019-05-23T18:29:35.528Z,36.60
2019-05-23T18:32:03.840Z,35.50
2019-05-23T18:34:30.789Z,35.90
2019-05-23T18:36:58.203Z,35.70
2019-05-23T18:39:25.939Z,35.80
2019-05-23T18:41:52.923Z,36.60
2019-05-23T18:44:19.228Z,36.20
2019-05-23T18:46:50.424Z,36.10
2019-05-23T18:49:18.236Z,36.20
2019-05-23T18:51:44.784Z,36.70
2019-05-23T18:54:11.755Z,36.70
2019-05-23T18:56:38.730Z,37.00
2019-05-23T18:59:06.861Z,37.00
2019-05-23T19:01:33.533Z,37.90
2019-05-23T19:04:00.046Z,38.40
2019-05-23T19:06:27.011Z,37.70
2019-05-23T19:08:53.942Z,37.80
2019-05-23T19:11:21.911Z,38.00
2019-05-23T19:13:48.471Z,38.30
2019-05-23T19:16:15.188Z,38.50
2019-05-23T19:18:42.004Z,38.80
2019-05-23T19:21:10.356Z,38.80
2019-05-23T19:23:37.207Z,39.20
2019-05-23T19:26:04.992Z,39.30
2019-05-23T19:28:32.028Z,39.30
2019-05-23T19:30:58.602Z,39.50
2019-05-23T19:33:25.723Z,39.60
2019-05-23T19:35:52.541Z,40.20
2019-05-23T19:38:19.537Z,40.20
2019-05-23T19:40:46.634Z,40.30
2019-05-23T19:43:14.696Z,40.40
2019-05-23T19:45:41.532Z,40.70
2019-05-23T19:48:07.860Z,40.80
2019-05-23T19:50:35.185Z,41.10
2019-05-23T19:53:01.845Z,41.50
2019-05-23T19:55:28.608Z,41.60
2019-05-23T19:57:55.017Z,41.60
2019-05-23T20:00:23.167Z,42.00
2019-05-23T20:02:56.741Z,42.10
2019-05-23T20:05:25.102Z,42.20
2019-05-23T20:07:51.648Z,42.40
2019-05-23T20:10:18.738Z,42.40
2019-05-23T20:12:45.018Z,42.60
2019-05-23T20:15:11.332Z,42.70
2019-05-23T20:17:37.969Z,42.80
2019-05-23T20:20:05.665Z,43.00
2019-05-23T20:22:32.074Z,43.10
2019-05-23T20:24:58.368Z,43.20
2019-05-23T20:27:24.675Z,43.30
2019-05-23T20:29:51.080Z,43.30
2019-05-23T20:32:17.516Z,43.40
2019-05-23T20:34:43.924Z,43.40
2019-05-23T20:37:10.251Z,43.50
2019-05-23T20:39:37.170Z,43.50
2019-05-23T20:42:11.218Z,43.60
2019-05-23T20:44:31.785Z,43.80
2019-05-23T20:46:58.419Z,44.00
2019-05-23T20:49:27.214Z,44.00
2019-05-23T20:51:53.255Z,44.10
2019-05-23T20:54:19.555Z,44.20
2019-05-23T20:56:46.000Z,44.30
2019-05-23T20:59:12.411Z,44.30
2019-05-23T21:01:40.249Z,44.40
2019-05-23T21:04:06.694Z,44.60
2019-05-23T21:06:33.929Z,44.50
2019-05-23T21:09:00.235Z,44.40
2019-05-23T21:11:26.550Z,44.40
2019-05-23T21:13:52.877Z,44.40
2019-05-23T21:16:19.289Z,44.50
2019-05-23T21:18:49.182Z,44.50
2019-05-23T21:21:14.332Z,44.50
2019-05-23T21:23:40.740Z,44.70
2019-05-23T21:26:07.275Z,44.70
2019-05-23T21:28:33.676Z,44.70
2019-05-23T21:31:00.117Z,44.70
2019-05-23T21:33:26.738Z,44.70
2019-05-23T21:35:53.340Z,44.70
2019-05-23T21:38:19.953Z,44.70
2019-05-23T21:40:46.491Z,44.80
2019-05-23T21:43:13.028Z,44.90
2019-05-23T21:45:39.476Z,45.10
2019-05-23T21:48:06.011Z,45.10
2019-05-23T21:50:32.628Z,45.30
2019-05-23T21:52:58.951Z,45.50
2019-05-23T21:55:40.020Z,45.50
2019-05-23T21:58:06.538Z,45.60
2019-05-23T22:00:59.709Z,46.20
2019-05-23T22:03:27.063Z,45.60
2019-05-23T22:05:53.362Z,45.80
2019-05-23T22:08:19.664Z,45.80
2019-05-23T22:10:46.098Z,45.80
2019-05-23T22:13:12.379Z,45.80
2019-05-23T22:15:38.725Z,46.20
2019-05-23T22:18:05.128Z,45.90
2019-05-23T22:20:31.736Z,46.20
2019-05-23T22:22:58.063Z,46.20
2019-05-23T22:25:31.164Z,46.30
2019-05-23T22:27:57.720Z,46.90
2019-05-23T22:30:24.015Z,46.20
2019-05-23T22:32:50.417Z,46.20
2019-05-23T22:35:18.644Z,46.20
2019-05-23T22:37:44.945Z,46.30
2019-05-23T22:40:12.372Z,46.40
2019-05-23T22:42:39.485Z,46.30
2019-05-23T22:45:07.694Z,46.70
2019-05-23T22:47:34.003Z,46.50
2019-05-23T22:50:00.325Z,46.50
2019-05-23T22:52:26.741Z,46.60
2019-05-23T22:54:53.271Z,46.60
2019-05-23T22:57:19.584Z,46.90
2019-05-23T22:59:46.113Z,46.90
2019-05-23T23:02:14.321Z,47.40
2019-05-23T23:04:40.679Z,47.10
2019-05-23T23:07:06.979Z,47.10
2019-05-23T23:09:33.312Z,47.10
2019-05-23T23:12:00.051Z,47.40
2019-05-23T23:14:26.455Z,48.10
2019-05-23T23:16:52.885Z,47.80
2019-05-23T23:19:19.179Z,47.60
2019-05-23T23:21:45.753Z,47.80
2019-05-23T23:24:12.016Z,47.70
2019-05-23T23:26:38.416Z,47.50
2019-05-23T23:29:05.561Z,47.90
2019-05-23T23:31:32.096Z,48.20
2019-05-23T23:33:58.393Z,47.80
2019-05-23T23:36:24.739Z,48.70
2019-05-23T23:38:51.252Z,47.70
2019-05-23T23:41:17.851Z,48.10
2019-05-23T23:43:58.062Z,48.30
2019-05-23T23:46:31.044Z,47.80
2019-05-23T23:49:15.823Z,47.70
2019-05-23T23:52:00.370Z,48.00
2019-05-23T23:54:45.146Z,47.80
2019-05-23T23:57:29.806Z,47.70
2019-05-23T23:59:58.010Z,47.50
